| time (UTC) | temp F | wind direction | speed knots | gust knots | rain 1hr in | rain 24hr in | rain mn in | humidity % | barometer mb |
| 20260504151116 | 68 | 238 | 1.7 | 2.6 | 0.00 | 0.06 | 0.01 | 65 | 1005.9 |
| 20260504150617 | 68 | 205 | 1.7 | 2.6 | 0.00 | 0.06 | 0.01 | 64 | 1005.8 |
| 20260504150116 | 68 | 222 | 1.7 | 2.6 | 0.00 | 0.06 | 0.01 | 65 | 1005.8 |
| 20260504141121 | 70 | 231 | 0.9 | 2.6 | 0.00 | 0.06 | 0.01 | 68 | 1005.9 |
| 20260504141115 | 71 | 217 | 0.9 | 5.2 | 0.00 | 0.06 | 0.01 | 68 | 1005.9 |
| 20260504140115 | 70 | 241 | 1.7 | 4.3 | 0.00 | 0.06 | 0.01 | 69 | 1006.0 |
| 20260504130619 | 63 | 235 | 0.9 | 3.5 | 0.00 | 0.06 | 0.01 | 80 | 1006.6 |
| 20260504130614 | 63 | 311 | 0.9 | 3.5 | 0.00 | 0.06 | 0.01 | 83 | 1006.8 |
| 20260504120114 | 60 | 236 | 0.9 | 1.7 | 0.00 | 0.06 | 0.01 | 84 | 1006.8 |
| 20260504110613 | 56 | 248 | 0.0 | 0.9 | 0.00 | 0.06 | 0.01 | 91 | 1006.9 |
| 20260504110119 | 56 | 248 | 0.0 | 0.0 | 0.00 | 0.06 | 0.01 | 93 | 1007.0 |
| 20260504110114 | 56 | 248 | 0.0 | 0.0 | 0.00 | 0.06 | 0.01 | 93 | 1007.0 |
| 20260504100614 | 56 | 248 | 0.0 | 0.0 | 0.00 | 0.06 | 0.01 | 91 | 1007.1 |
| 20260504100114 | 56 | 248 | 0.0 | 0.0 | 0.00 | 0.06 | 0.01 | 91 | 1007.1 |
| 20260504090115 | 57 | 338 | 0.0 | 0.9 | 0.00 | 0.06 | 0.01 | 90 | 1007.0 |
| 20260504081615 | 58 | 33 | 0.0 | 0.0 | 0.00 | 0.06 | 0.01 | 92 | 1007.0 |
| 20260504081114 | 58 | 33 | 0.0 | 0.0 | 0.00 | 0.06 | 0.01 | 91 | 1007.1 |
| 20260504080614 | 58 | 33 | 0.0 | 0.0 | 0.00 | 0.06 | 0.01 | 91 | 1007.2 |
| 20260504080114 | 58 | 33 | 0.0 | 0.0 | 0.00 | 0.06 | 0.01 | 91 | 1007.2 |
| 20260504070230 | 58 | 122 | 0.0 | 0.9 | 0.01 | 0.06 | 0.01 | 93 | 1007.6 |
| 20260504060114 | 58 | 53 | 0.0 | 1.7 | 0.00 | 0.05 | 0.00 | 94 | 1008.5 |
| 20260504050614 | 57 | 297 | 0.0 | 0.0 | 0.05 | 0.05 | 0.00 | 91 | 1007.1 |
| 20260504050115 | 58 | 297 | 0.0 | 0.0 | 0.05 | 0.05 | 0.00 | 91 | 1007.0 |
| 20260504045614 | 58 | 297 | 0.0 | 0.0 | 0.05 | 0.05 | 0.05 | 90 | 1007.0 |
| 20260504045113 | 58 | 297 | 0.0 | 0.0 | 0.05 | 0.05 | 0.05 | 89 | 1007.0 |
| 20260504044612 | 59 | 297 | 0.0 | 0.0 | 0.05 | 0.05 | 0.05 | 88 | 1007.2 |
| 20260504044114 | 59 | 297 | 0.0 | 0.0 | 0.05 | 0.05 | 0.05 | 87 | 1007.0 |
| 20260504043612 | 60 | 297 | 0.0 | 0.0 | 0.05 | 0.05 | 0.05 | 86 | 1006.8 |
| 20260504043111 | 60 | 297 | 0.0 | 0.0 | 0.05 | 0.05 | 0.05 | 85 | 1006.6 |
| 20260504042611 | 61 | 297 | 0.0 | 0.0 | 0.05 | 0.05 | 0.05 | 82 | 1007.0 |
| 20260504042113 | 62 | 297 | 0.0 | 0.0 | 0.05 | 0.05 | 0.05 | 80 | 1007.3 |
| 20260504041611 | 63 | 297 | 0.0 | 0.0 | 0.04 | 0.04 | 0.04 | 76 | 1007.8 |
| 20260504041113 | 65 | 252 | 0.0 | 1.7 | 0.01 | 0.01 | 0.01 | 70 | 1008.2 |
| 20260504040612 | 65 | 246 | 0.0 | 1.7 | 0.00 | 0.00 | 0.00 | 63 | 1007.6 |
| 20260504040113 | 65 | 204 | 0.0 | 0.9 | 0.00 | 0.00 | 0.00 | 62 | 1007.4 |
| 20260504035611 | 66 | 204 | 0.9 | 0.9 | 0.00 | 0.00 | 0.00 | 61 | 1007.5 |
| 20260504035117 | 66 | 226 | 0.9 | 2.6 | 0.00 | 0.00 | 0.00 | 59 | 1007.8 |
| 20260504035112 | 66 | 243 | 0.9 | 0.9 | 0.00 | 0.00 | 0.00 | 61 | 1007.8 |
| 20260504034111 | 67 | 226 | 0.9 | 2.6 | 0.00 | 0.00 | 0.00 | 59 | 1007.9 |
| 20260504033618 | 67 | 235 | 0.9 | 3.5 | 0.00 | 0.00 | 0.00 | 58 | 1007.9 |
| 20260504033613 | 67 | 134 | 0.9 | 3.5 | 0.00 | 0.00 | 0.00 | 59 | 1007.9 |
| 20260504032617 | 67 | 222 | 0.9 | 1.7 | 0.00 | 0.00 | 0.00 | 58 | 1008.1 |
| 20260504032612 | 67 | 231 | 0.9 | 1.7 | 0.00 | 0.00 | 0.00 | 59 | 1008.1 |
| 20260504031618 | 67 | 107 | 0.9 | 1.7 | 0.00 | 0.00 | 0.00 | 59 | 1008.1 |
| 20260504031613 | 67 | 239 | 0.9 | 1.7 | 0.00 | 0.00 | 0.00 | 58 | 1008.1 |
| 20260504030613 | 67 | 224 | 0.0 | 1.7 | 0.00 | 0.00 | 0.00 | 59 | 1008.1 |
| 20260504030112 | 67 | 173 | 0.0 | 1.7 | 0.00 | 0.00 | 0.00 | 61 | 1008.2 |
| 20260504025616 | 67 | 87 | 0.0 | 0.9 | 0.00 | 0.00 | 0.00 | 59 | 1008.2 |
| 20260504025611 | 67 | 126 | 0.0 | 0.9 | 0.00 | 0.00 | 0.00 | 59 | 1008.2 |
| 20260504024612 | 67 | 88 | 0.0 | 0.9 | 0.00 | 0.00 | 0.00 | 59 | 1008.1 |
| 20260504024117 | 67 | 222 | 0.0 | 0.0 | 0.00 | 0.00 | 0.00 | 59 | 1008.0 |
| 20260504024113 | 67 | 84 | 0.0 | 0.9 | 0.00 | 0.00 | 0.00 | 59 | 1008.1 |
| 20260504023111 | 67 | 222 | 0.0 | 0.0 | 0.00 | 0.00 | 0.00 | 58 | 1008.1 |
| 20260504022612 | 68 | 222 | 0.0 | 0.0 | 0.00 | 0.00 | 0.00 | 58 | 1008.1 |
| 20260504022112 | 68 | 222 | 0.0 | 0.0 | 0.00 | 0.00 | 0.00 | 58 | 1008.1 |
| 20260504021611 | 68 | 222 | 0.0 | 0.9 | 0.00 | 0.00 | 0.00 | 57 | 1008.0 |
| 20260504021112 | 68 | 222 | 0.0 | 0.9 | 0.00 | 0.00 | 0.00 | 56 | 1008.0 |
| 20260504020611 | 69 | 222 | 0.0 | 0.9 | 0.00 | 0.00 | 0.00 | 56 | 1007.9 |
| 20260504020112 | 69 | 219 | 0.0 | 0.9 | 0.00 | 0.00 | 0.00 | 54 | 1007.8 |
| 20260504015613 | 69 | 219 | 0.0 | 0.9 | 0.00 | 0.00 | 0.00 | 54 | 1007.8 |
| 20260504015111 | 70 | 218 | 0.0 | 0.9 | 0.00 | 0.00 | 0.00 | 53 | 1007.7 |
| 20260504014611 | 70 | 228 | 0.9 | 0.9 | 0.00 | 0.00 | 0.00 | 53 | 1007.6 |
| 20260504014112 | 71 | 222 | 0.9 | 1.7 | 0.00 | 0.00 | 0.00 | 52 | 1007.5 |
| 20260504013611 | 71 | 231 | 0.9 | 1.7 | 0.00 | 0.00 | 0.00 | 50 | 1007.4 |
| 20260504013112 | 71 | 150 | 0.9 | 3.5 | 0.00 | 0.00 | 0.00 | 50 | 1007.4 |
| 20260504012611 | 71 | 259 | 0.9 | 3.5 | 0.00 | 0.00 | 0.00 | 49 | 1007.4 |
| 20260504012117 | 72 | 219 | 0.9 | 1.7 | 0.00 | 0.00 | 0.00 | 49 | 1007.3 |
| 20260504012112 | 72 | 222 | 0.9 | 1.7 | 0.00 | 0.00 | 0.00 | 50 | 1007.3 |
| 20260504011728 | 72 | 219 | 0.9 | 1.7 | 0.00 | 0.00 | 0.00 | 49 | 1007.2 |
| 20260504011227 | 72 | 228 | 0.9 | 1.7 | 0.00 | 0.00 | 0.00 | 48 | 1007.2 |
| 20260504010112 | 72 | 229 | 0.9 | 1.7 | 0.00 | 0.00 | 0.00 | 47 | 1007.1 |
| 20260504005612 | 72 | 229 | 0.9 | 1.7 | 0.00 | 0.00 | 0.00 | 47 | 1007.1 |
| 20260504005113 | 72 | 224 | 0.9 | 1.7 | 0.00 | 0.00 | 0.00 | 47 | 1007.1 |
| 20260504004616 | 73 | 219 | 0.9 | 1.7 | 0.00 | 0.00 | 0.00 | 47 | 1007.1 |
| 20260504004612 | 72 | 224 | 0.9 | 1.7 | 0.00 | 0.00 | 0.00 | 47 | 1007.1 |
| 20260504003611 | 73 | 218 | 0.9 | 1.7 | 0.00 | 0.00 | 0.00 | 47 | 1007.2 |
| 20260504003111 | 73 | 219 | 0.9 | 1.7 | 0.00 | 0.00 | 0.00 | 46 | 1007.1 |
| 20260504002612 | 73 | 219 | 0.9 | 1.7 | 0.00 | 0.00 | 0.00 | 46 | 1007.3 |
| 20260504002112 | 73 | 233 | 0.9 | 1.7 | 0.00 | 0.00 | 0.00 | 47 | 1007.3 |
| 20260504001612 | 74 | 237 | 0.9 | 1.7 | 0.00 | 0.00 | 0.00 | 44 | 1007.2 |
| 20260504001111 | 74 | 233 | 0.9 | 1.7 | 0.00 | 0.00 | 0.00 | 44 | 1007.2 |
| 20260504000613 | 74 | 234 | 0.9 | 1.7 | 0.00 | 0.00 | 0.00 | 43 | 1007.2 |
| 20260504000112 | 75 | 232 | 0.9 | 1.7 | 0.00 | 0.00 | 0.00 | 43 | 1007.2 |
| 20260503235613 | 75 | 232 | 1.7 | 2.6 | 0.00 | 0.00 | 0.00 | 42 | 1007.3 |
| 20260503235113 | 75 | 252 | 1.7 | 2.6 | 0.00 | 0.00 | 0.00 | 41 | 1007.3 |
| 20260503234612 | 75 | 232 | 0.9 | 2.6 | 0.00 | 0.00 | 0.00 | 42 | 1007.2 |
| 20260503234112 | 76 | 226 | 0.9 | 3.5 | 0.00 | 0.00 | 0.00 | 43 | 1007.1 |
| 20260503233613 | 76 | 172 | 0.9 | 3.5 | 0.00 | 0.00 | 0.00 | 41 | 1007.3 |
| 20260503233113 | 76 | 238 | 0.9 | 2.6 | 0.00 | 0.00 | 0.00 | 41 | 1007.5 |
| 20260503232612 | 77 | 236 | 0.9 | 4.3 | 0.00 | 0.00 | 0.00 | 40 | 1007.4 |
| 20260503232113 | 77 | 245 | 1.7 | 4.3 | 0.00 | 0.00 | 0.00 | 39 | 1007.5 |
| 20260503231611 | 78 | 242 | 1.7 | 3.5 | 0.00 | 0.00 | 0.00 | 38 | 1007.7 |
| 20260503231113 | 78 | 246 | 1.7 | 3.5 | 0.00 | 0.00 | 0.00 | 38 | 1007.7 |
| 20260503230613 | 78 | 219 | 1.7 | 3.5 | 0.00 | 0.00 | 0.00 | 38 | 1007.5 |
| 20260503230113 | 78 | 239 | 1.7 | 3.5 | 0.00 | 0.00 | 0.00 | 38 | 1007.7 |
| 20260503225612 | 79 | 219 | 0.9 | 2.6 | 0.00 | 0.00 | 0.00 | 38 | 1007.8 |
| 20260503225113 | 79 | 230 | 1.7 | 5.2 | 0.00 | 0.00 | 0.00 | 37 | 1007.8 |
| 20260503224612 | 79 | 238 | 1.7 | 5.2 | 0.00 | 0.00 | 0.00 | 36 | 1007.8 |
| 20260503224117 | 78 | 238 | 1.7 | 3.5 | 0.00 | 0.00 | 0.00 | 36 | 1008.0 |
| 20260503224113 | 79 | 214 | 0.9 | 3.5 | 0.00 | 0.00 | 0.00 | 38 | 1007.8 |
| 20260503223729 | 78 | 232 | 1.7 | 3.5 | 0.00 | 0.00 | 0.00 | 39 | 1007.9 |
| 20260503223229 | 78 | 219 | 1.7 | 4.3 | 0.00 | 0.00 | 0.00 | 38 | 1008.0 |
| 20260503222111 | 78 | 228 | 1.7 | 4.3 | 0.00 | 0.00 | 0.00 | 38 | 1007.9 |
| 20260503221610 | 78 | 224 | 2.6 | 5.2 | 0.00 | 0.00 | 0.00 | 37 | 1008.0 |
| 20260503221108 | 78 | 193 | 1.7 | 5.2 | 0.00 | 0.00 | 0.00 | 39 | 1008.0 |
| 20260503220609 | 78 | 158 | 1.7 | 5.2 | 0.00 | 0.00 | 0.00 | 37 | 1008.1 |
| 20260503220109 | 78 | 224 | 1.7 | 4.3 | 0.00 | 0.00 | 0.00 | 39 | 1008.1 |
| 20260503215606 | 78 | 228 | 1.7 | 4.3 | 0.00 | 0.00 | 0.00 | 39 | 1008.1 |
| 20260503215107 | 78 | 219 | 1.7 | 4.3 | 0.00 | 0.00 | 0.00 | 39 | 1008.2 |
| 20260503214606 | 78 | 211 | 1.7 | 4.3 | 0.00 | 0.00 | 0.00 | 38 | 1008.4 |
| 20260503214103 | 77 | 217 | 1.7 | 4.3 | 0.00 | 0.00 | 0.00 | 38 | 1008.4 |
| 20260503213603 | 77 | 226 | 1.7 | 3.5 | 0.00 | 0.00 | 0.00 | 40 | 1008.6 |
| 20260503213103 | 77 | 214 | 2.6 | 3.5 | 0.00 | 0.00 | 0.00 | 39 | 1008.6 |
| 20260503212605 | 77 | 222 | 1.7 | 3.5 | 0.00 | 0.00 | 0.00 | 38 | 1008.8 |
| 20260503212103 | 77 | 242 | 1.7 | 3.5 | 0.00 | 0.00 | 0.00 | 39 | 1008.8 |
| 20260503211607 | 76 | 219 | 2.6 | 8.7 | 0.00 | 0.00 | 0.00 | 39 | 1008.8 |
| 20260503211603 | 77 | 221 | 1.7 | 8.7 | 0.00 | 0.00 | 0.00 | 40 | 1008.8 |
| 20260503210602 | 76 | 222 | 1.7 | 5.2 | 0.00 | 0.00 | 0.00 | 40 | 1008.9 |
| 20260503205603 | 76 | 222 | 2.6 | 7.8 | 0.00 | 0.00 | 0.00 | 39 | 1008.7 |
| 20260503205100 | 76 | 219 | 2.6 | 7.8 | 0.00 | 0.00 | 0.00 | 39 | 1008.8 |
| 20260503204600 | 76 | 222 | 2.6 | 7.8 | 0.00 | 0.00 | 0.00 | 39 | 1009.0 |
| 20260503204100 | 75 | 138 | 2.6 | 7.0 | 0.00 | 0.00 | 0.00 | 39 | 1009.2 |
| 20260503203600 | 75 | 117 | 2.6 | 7.0 | 0.00 | 0.00 | 0.00 | 39 | 1009.4 |
| 20260503203101 | 75 | 219 | 2.6 | 10.4 | 0.00 | 0.00 | 0.00 | 39 | 1009.5 |
| 20260503202559 | 75 | 219 | 2.6 | 10.4 | 0.00 | 0.00 | 0.00 | 39 | 1009.7 |
| 20260503202100 | 75 | 226 | 1.7 | 6.1 | 0.00 | 0.00 | 0.00 | 40 | 1009.8 |
| 20260503201559 | 75 | 214 | 2.6 | 6.1 | 0.00 | 0.00 | 0.00 | 39 | 1010.0 |
| 20260503201100 | 75 | 219 | 2.6 | 7.0 | 0.00 | 0.00 | 0.00 | 40 | 1010.2 |
| 20260503200559 | 74 | 224 | 2.6 | 7.8 | 0.00 | 0.00 | 0.00 | 39 | 1010.2 |
| 20260503200105 | 74 | 195 | 2.6 | 10.4 | 0.00 | 0.00 | 0.00 | 40 | 1010.5 |
| 20260503200100 | 74 | 217 | 2.6 | 7.8 | 0.00 | 0.00 | 0.00 | 41 | 1010.3 |
| 20260503195101 | 74 | 231 | 2.6 | 10.4 | 0.00 | 0.00 | 0.00 | 41 | 1010.6 |
| 20260503194559 | 74 | 215 | 2.6 | 6.1 | 0.00 | 0.00 | 0.00 | 41 | 1010.8 |
| 20260503194057 | 74 | 239 | 2.6 | 6.1 | 0.00 | 0.00 | 0.00 | 40 | 1010.9 |
| 20260503193600 | 73 | 236 | 2.6 | 6.1 | 0.00 | 0.00 | 0.00 | 42 | 1011.1 |
| 20260503193555 | 74 | 150 | 2.6 | 6.1 | 0.00 | 0.00 | 0.00 | 42 | 1011.0 |
| 20260503192555 | 73 | 207 | 2.6 | 8.7 | 0.00 | 0.00 | 0.00 | 41 | 1011.2 |
| 20260503192054 | 72 | 229 | 2.6 | 9.6 | 0.00 | 0.00 | 0.00 | 42 | 1011.3 |
| 20260503191553 | 72 | 231 | 2.6 | 9.6 | 0.00 | 0.00 | 0.00 | 41 | 1011.5 |
| 20260503191053 | 72 | 158 | 2.6 | 6.1 | 0.00 | 0.00 | 0.00 | 43 | 1011.6 |
| 20260503190552 | 72 | 226 | 2.6 | 6.1 | 0.00 | 0.00 | 0.00 | 43 | 1011.7 |
| 20260503190055 | 71 | 84 | 2.6 | 9.6 | 0.00 | 0.00 | 0.00 | 43 | 1011.9 |
| 20260503190051 | 71 | 225 | 2.6 | 9.6 | 0.00 | 0.00 | 0.00 | 42 | 1011.9 |
| 20260503185707 | 71 | 50 | 2.6 | 7.8 | 0.00 | 0.00 | 0.00 | 42 | 1012.1 |
| 20260503184551 | 71 | 215 | 2.6 | 7.0 | 0.00 | 0.00 | 0.00 | 42 | 1012.3 |
| 20260503184049 | 71 | 210 | 2.6 | 7.0 | 0.00 | 0.00 | 0.00 | 42 | 1012.4 |
| 20260503183549 | 71 | 136 | 1.7 | 7.0 | 0.00 | 0.00 | 0.00 | 44 | 1012.5 |
| 20260503183049 | 71 | 235 | 1.7 | 7.0 | 0.00 | 0.00 | 0.00 | 45 | 1012.6 |
| 20260503182547 | 71 | 236 | 1.7 | 6.1 | 0.00 | 0.00 | 0.00 | 45 | 1012.8 |
| 20260503182047 | 71 | 136 | 1.7 | 5.2 | 0.00 | 0.00 | 0.00 | 43 | 1013.0 |
| 20260503181546 | 71 | 239 | 2.6 | 7.8 | 0.00 | 0.00 | 0.00 | 45 | 1013.1 |
| 20260503181049 | 70 | 158 | 1.7 | 6.1 | 0.00 | 0.00 | 0.00 | 45 | 1013.5 |
| 20260503181045 | 70 | 181 | 1.7 | 7.8 | 0.00 | 0.00 | 0.00 | 46 | 1013.3 |
| 20260503180045 | 70 | 200 | 1.7 | 7.0 | 0.00 | 0.00 | 0.00 | 46 | 1013.6 |
| 20260503175543 | 70 | 169 | 2.6 | 7.0 | 0.00 | 0.00 | 0.00 | 46 | 1014.0 |
| 20260503175045 | 70 | 228 | 2.6 | 6.1 | 0.00 | 0.00 | 0.00 | 46 | 1014.0 |
| 20260503174549 | 69 | 217 | 2.6 | 6.1 | 0.00 | 0.00 | 0.00 | 48 | 1014.4 |
| 20260503174545 | 70 | 203 | 2.6 | 5.2 | 0.00 | 0.00 | 0.00 | 46 | 1014.2 |
| 20260503174200 | 69 | 228 | 2.6 | 7.8 | 0.00 | 0.00 | 0.00 | 49 | 1014.3 |
| 20260503173043 | 68 | 113 | 2.6 | 7.8 | 0.00 | 0.00 | 0.00 | 48 | 1014.5 |
| 20260503172549 | 68 | 160 | 2.6 | 7.8 | 0.00 | 0.00 | 0.00 | 49 | 1014.6 |
| 20260503172544 | 68 | 102 | 2.6 | 7.0 | 0.00 | 0.00 | 0.00 | 49 | 1014.5 |
| 20260503171543 | 67 | 121 | 2.6 | 7.8 | 0.00 | 0.00 | 0.00 | 49 | 1014.6 |
| 20260503171044 | 67 | 193 | 2.6 | 7.0 | 0.00 | 0.00 | 0.00 | 50 | 1014.8 |
| 20260503170544 | 67 | 210 | 1.7 | 7.0 | 0.00 | 0.00 | 0.00 | 49 | 1014.8 |